Impacts TAF Board INFO
FOR SITUATIONAL AWARENESS. NOT TO BE USED FOR FLIGHT PLANNING PURPOSES.
IDs:

KDFW - Dallas-Ft Worth Intl, TX, US

Issued at 0254 UTC 17 Dec 2017
Updated at 0400 UTC 17 Dec 2017
Potential Impact None Slight Moderate High
Time0353Z 17/04Z 17/05Z 17/06Z 17/07Z 17/08Z 17/09Z 17/10Z 17/11Z 17/12Z 17/13Z 17/14Z 17/15Z 17/16Z>>
Type OBS PRVL PRVL PRVL PRVL PRVL PRVL PRVL PRVL PRVL PRVL PRVL PRVL PRVL
VIS 4 4 2 2 2 2 2 2 2 2 2 2 >6 >6
CIG 55 25 8 8 8 8 8 8 8 8 8 8 15 40
Cover OVC OVC OVC OVC OVC OVC OVC OVC OVC OVC OVC OVC BKN OVC
FltCat MVFR MVFR IFR IFR IFR IFR IFR IFR IFR IFR IFR IFR MVFR VFR
WX -RA BR RA BR BR BR BR BR BR BR BR BR BR BR -- --
WDir 150 160 170 170 170 170 170 170 170 170 170 170 170 170
WSpd 9 9 7 7 7 7 7 7 7 7 7 7 6 8
WGst -- -- -- -- -- -- -- -- -- -- -- -- -- --

Raw TAF
KDFW 170254Z 1703/1806 16009KT 4SM RA BR SCT008 BKN025 OVC080
  FM170500 17007KT 2SM BR OVC008
  FM171500 17006KT P6SM BKN015
  FM171600 17008KT P6SM BKN040 OVC250
  FM171800 17010KT P6SM SCT040 BKN250


Raw METAR
KDFW 170353Z 15009KT 4SM -RA BR SCT005 SCT015 OVC055 07/06 A3005 RMK AO2 SLP174 SCT015 V BKN P0031 T00720061 $
KDFW 170345Z 16008KT 3SM +RA BR FEW008 SCT015 OVC055 07/06 A3004 RMK AO2 SCT015 V BKN P0030 T00720061 $
KDFW 170337Z 16010KT 3SM +RA BR SCT007 BKN015 OVC025 07/06 A3004 RMK AO2 P0024 T00720061 $
KDFW 170302Z 12008KT 4SM RA BR SCT008 BKN013 OVC049 07/07 A3002 RMK AO2 SCT008 V BKN P0004 T00720067 $
KDFW 170253Z 15009KT 3SM +RA BR SCT008 SCT030 OVC075 08/06 A3002 RMK AO2 PRESFR SLP166 SCT008 V BKN P0021 60033 T00780061 56011 $
KDFW 170243Z 16009KT 4SM RA BR SCT008 BKN027 OVC075 08/07 A3004 RMK AO2 P0017 T00780067 $
KDFW 170209Z 14009KT 4SM RA BR SCT008 BKN055 OVC070 08/06 A3002 RMK AO2 SCT008 V BKN P0004 T00780061 $
KDFW 170156Z 15008KT 4SM RA BR BKN009 BKN019 OVC075 08/07 A3003 RMK AO2 P0000 T00780067 $
KDFW 170153Z 16009KT 4SM -RA BR SCT009 BKN019 OVC050 08/07 A3004 RMK AO2 SLP173 SCT009 V BKN P0008 T00780067 $
KDFW 170148Z COR 17009KT 4SM RA BR BKN009 BKN017 OVC050 08/07 A3004 RMK AO2 BKN017 V SCT P0007 $
KDFW 170134Z 14008KT 4SM RA BR FEW009 SCT017 OVC047 08/07 A3003 RMK AO2 P0005 T00780067 $
KDFW 170053Z 13007KT 6SM -RA BR FEW025 SCT055 OVC080 08/07 A3002 RMK AO2 SLP164 P0004 T00780067 $
KDFW 170037Z 11009KT 6SM -RA BR SCT026 BKN055 OVC075 08/06 A3001 RMK AO2 SCT V BKN P0003 T00780061 $

METAR Board
Radar Display
Forecast Discussion

FOR SITUATIONAL AWARENESS. NOT TO BE USED FOR FLIGHT PLANNING PURPOSES.